Time;durP1;ratioP1;P1;durP2;ratioP2;P2;SDS_P1;SDS_P2;PMS_P1;PMS_P2;Temp;Humidity;BMP_temperature;BMP_pressure;BME280_temperature;BME280_humidity;BME280_pressure;Samples;Min_cycle;Max_cycle;Signal;HPM_P1;HPM_P2
2022/01/08 00:00:14;;;;;;;7.30;3.93;;;2.80;1.00;;;;;;5051178;28;20472;-60
2022/01/08 00:02:41;;;;;;;8.53;3.83;;;2.80;1.00;;;;;;5051366;28;20452;-59
2022/01/08 00:05:08;;;;;;;6.60;4.40;;;2.90;1.00;;;;;;5051237;28;20444;-60
2022/01/08 00:07:35;;;;;;;6.17;3.83;;;2.90;1.00;;;;;;5051130;28;20447;-60
2022/01/08 00:10:02;;;;;;;9.80;4.37;;;2.90;1.00;;;;;;5050913;28;20976;-60
2022/01/08 00:12:28;;;;;;;7.67;4.23;;;2.90;1.00;;;;;;5051255;28;21451;-60
2022/01/08 00:14:55;;;;;;;6.83;4.30;;;2.90;1.00;;;;;;5051046;28;20492;-60
2022/01/08 00:17:23;;;;;;;7.87;4.23;;;2.80;1.00;;;;;;5050790;28;20826;-60
2022/01/08 00:19:50;;;;;;;10.47;4.60;;;2.80;1.00;;;;;;5051203;28;20272;-60
2022/01/08 00:22:17;;;;;;;6.70;4.17;;;2.90;1.00;;;;;;5050924;28;20213;-60
2022/01/08 00:24:43;;;;;;;11.97;4.80;;;2.90;1.00;;;;;;5050947;28;20440;-59
2022/01/08 00:27:10;;;;;;;12.43;4.97;;;2.80;99.90;;;;;;5050984;28;20571;-60
2022/01/08 00:29:37;;;;;;;7.13;4.27;;;2.80;99.90;;;;;;5051344;28;20471;-60
2022/01/08 00:32:04;;;;;;;13.93;4.70;;;2.70;1.00;;;;;;5051466;28;20448;-60
2022/01/08 00:34:32;;;;;;;9.03;4.93;;;2.80;1.00;;;;;;5051112;28;20492;-56
2022/01/08 00:36:59;;;;;;;10.03;5.37;;;2.80;1.00;;;;;;5051460;28;20505;-59
2022/01/08 00:39:26;;;;;;;7.40;5.10;;;2.80;1.00;;;;;;5050793;28;20472;-59
2022/01/08 00:41:52;;;;;;;9.47;4.90;;;2.80;1.00;;;;;;5051515;28;20530;-58
2022/01/08 00:44:19;;;;;;;10.43;5.63;;;2.80;1.00;;;;;;5051063;28;20861;-57
2022/01/08 00:46:47;;;;;;;8.73;4.37;;;2.80;1.00;;;;;;5050780;28;20943;-57
2022/01/08 00:49:13;;;;;;;9.67;4.67;;;2.80;1.00;;;;;;5051195;28;20468;-60
2022/01/08 00:51:41;;;;;;;7.80;4.43;;;2.80;1.00;;;;;;5050869;28;20209;-57
2022/01/08 00:54:08;;;;;;;8.23;5.07;;;2.80;1.00;;;;;;5050839;28;20567;-59
2022/01/08 00:56:35;;;;;;;11.87;5.20;;;2.70;1.00;;;;;;5050828;28;20452;-60
2022/01/08 00:59:03;;;;;;;10.00;5.17;;;2.60;1.00;;;;;;5051532;28;20527;-60
2022/01/08 01:01:30;;;;;;;10.47;5.40;;;2.60;1.00;;;;;;5052960;28;20550;-59
2022/01/08 01:03:56;;;;;;;12.83;5.60;;;2.60;1.00;;;;;;5051357;28;20452;-59
2022/01/08 01:06:23;;;;;;;10.03;5.77;;;2.60;1.00;;;;;;5050872;28;20471;-54
2022/01/08 01:08:51;;;;;;;15.23;6.50;;;2.60;1.00;;;;;;5050701;28;21202;-59
2022/01/08 01:11:18;;;;;;;12.37;5.73;;;2.60;1.00;;;;;;5054446;28;20444;-58
2022/01/08 01:13:45;;;;;;;9.10;5.60;;;2.50;1.00;;;;;;5054446;28;20460;-59
2022/01/08 01:16:11;;;;;;;12.33;5.53;;;2.50;1.00;;;;;;5054291;28;20509;-57
2022/01/08 01:18:38;;;;;;;11.13;6.57;;;2.50;1.00;;;;;;5053756;28;20961;-58
2022/01/08 01:21:05;;;;;;;12.13;6.40;;;2.50;1.00;;;;;;5053965;28;20452;-58
2022/01/08 01:23:36;;;;;;;10.73;5.70;;;2.50;1.00;;;;;;5054073;28;20454;-60
2022/01/08 01:26:08;;;;;;;10.30;6.10;;;2.40;1.00;;;;;;5053861;28;20536;-57
2022/01/08 01:28:43;;;;;;;12.53;6.47;;;2.30;1.00;;;;;;5055856;28;20452;-59
2022/01/08 01:42:37;;;;;;;14.63;6.47;;;2.10;1.00;;;;;;5053471;28;20443;-55
2022/01/08 01:47:48;;;;;;;12.13;6.43;;;2.00;1.00;;;;;;5053311;28;20438;-59
2022/01/08 01:50:15;;;;;;;11.87;7.10;;;1.80;1.00;;;;;;5053590;28;20462;-58
2022/01/08 01:52:42;;;;;;;12.13;7.67;;;1.80;1.00;;;;;;5053375;28;20849;-58
2022/01/08 01:55:10;;;;;;;12.80;7.57;;;1.80;1.00;;;;;;5053447;28;20486;-57
2022/01/08 01:57:38;;;;;;;13.03;7.83;;;1.80;1.00;;;;;;5053101;28;20497;-58
2022/01/08 02:00:06;;;;;;;15.40;8.37;;;1.80;1.00;;;;;;5053365;28;20476;-58
2022/01/08 02:02:33;;;;;;;10.50;6.97;;;1.80;1.00;;;;;;5053339;28;20457;-60
2022/01/08 02:05:00;;;;;;;13.80;8.67;;;1.70;1.00;;;;;;5052959;28;20456;-59
2022/01/08 02:07:28;;;;;;;14.87;8.73;;;1.70;1.00;;;;;;5053378;28;20463;-60
2022/01/08 02:09:56;;;;;;;14.67;8.83;;;1.70;1.00;;;;;;5053230;28;20483;-58
2022/01/08 02:12:23;;;;;;;13.97;8.73;;;1.70;1.00;;;;;;5053183;28;20538;-59
2022/01/08 02:14:51;;;;;;;15.83;8.93;;;1.60;1.00;;;;;;5052907;28;20492;-60
2022/01/08 02:17:18;;;;;;;16.37;8.77;;;1.50;1.00;;;;;;5052868;28;20450;-60
2022/01/08 02:19:45;;;;;;;16.47;10.03;;;1.50;1.00;;;;;;5053312;28;20475;-58
2022/01/08 02:22:16;;;;;;;16.67;10.27;;;1.50;1.00;;;;;;5052701;28;21080;-59
2022/01/08 02:24:45;;;;;;;15.40;9.90;;;1.50;1.00;;;;;;5052916;28;20449;-60
2022/01/08 02:27:11;;;;;;;14.83;9.30;;;1.50;1.00;;;;;;5052655;28;20505;-60
2022/01/08 02:29:38;;;;;;;19.17;10.10;;;1.50;1.00;;;;;;5052973;28;20475;-60
2022/01/08 02:32:09;;;;;;;18.27;10.33;;;1.50;1.00;;;;;;5052641;28;20831;-60
2022/01/08 02:34:37;;;;;;;18.63;10.20;;;1.50;1.00;;;;;;5052608;28;20925;-59
2022/01/08 02:37:05;;;;;;;15.93;9.83;;;1.50;1.00;;;;;;5052425;28;20447;-58
2022/01/08 02:39:38;;;;;;;14.30;10.37;;;1.40;1.00;;;;;;5052715;28;20537;-59
2022/01/08 02:42:06;;;;;;;16.90;9.70;;;1.40;1.00;;;;;;5052573;28;20454;-59
2022/01/08 02:44:33;;;;;;;22.77;9.33;;;1.40;1.00;;;;;;5052453;28;20459;-56
2022/01/08 02:47:00;;;;;;;14.93;8.80;;;1.40;1.00;;;;;;5053255;28;20538;-60
2022/01/08 02:49:27;;;;;;;15.17;10.03;;;1.30;1.00;;;;;;5052647;28;21005;-60
2022/01/08 02:51:54;;;;;;;18.20;9.83;;;1.30;1.00;;;;;;5052903;28;20458;-59
2022/01/08 02:54:21;;;;;;;14.70;9.17;;;1.30;1.00;;;;;;5052437;28;20458;-60
2022/01/08 02:56:50;;;;;;;16.70;9.83;;;1.30;1.00;;;;;;5052379;28;20544;-60
2022/01/08 02:59:18;;;;;;;15.23;9.57;;;1.30;1.00;;;;;;5052775;28;20572;-59
2022/01/08 03:01:45;;;;;;;17.07;9.90;;;1.20;1.00;;;;;;5052638;28;20455;-59
2022/01/08 03:04:12;;;;;;;17.83;11.10;;;1.10;1.00;;;;;;5053033;28;20505;-59
2022/01/08 03:06:39;;;;;;;20.73;11.50;;;1.00;1.00;;;;;;5052364;28;20444;-59
2022/01/08 03:09:06;;;;;;;26.53;12.67;;;1.00;1.00;;;;;;5052558;28;20982;-58
2022/01/08 03:11:33;;;;;;;22.47;12.60;;;1.00;1.00;;;;;;5052526;28;20457;-59
2022/01/08 03:14:01;;;;;;;19.50;11.93;;;1.00;1.00;;;;;;5052300;28;20460;-56
2022/01/08 03:16:28;;;;;;;16.17;10.80;;;1.00;1.00;;;;;;5052671;28;20536;-60
2022/01/08 03:18:54;;;;;;;16.03;11.40;;;1.00;1.00;;;;;;5051954;28;20479;-59
2022/01/08 03:21:22;;;;;;;19.30;12.83;;;0.90;1.00;;;;;;5052225;28;20964;-59
2022/01/08 03:23:53;;;;;;;19.50;13.07;;;0.90;1.00;;;;;;5052218;28;20453;-60
2022/01/08 03:26:23;;;;;;;21.17;13.00;;;0.90;1.00;;;;;;5052078;28;20461;-58
2022/01/08 03:28:50;;;;;;;22.07;12.57;;;0.90;1.00;;;;;;5052075;28;20467;-59
2022/01/08 03:31:20;;;;;;;21.20;12.07;;;0.90;1.00;;;;;;5052063;28;20489;-56
2022/01/08 03:33:47;;;;;;;21.80;12.57;;;0.90;1.00;;;;;;5051321;28;20464;-53
2022/01/08 03:36:15;;;;;;;23.73;13.70;;;0.90;1.00;;;;;;5051685;28;20478;-58
2022/01/08 03:38:42;;;;;;;24.63;14.93;;;0.80;1.00;;;;;;5051729;28;20465;-58
2022/01/08 03:41:09;;;;;;;22.40;13.97;;;0.80;1.00;;;;;;5052019;28;20477;-57
2022/01/08 03:43:35;;;;;;;24.17;14.90;;;0.80;1.00;;;;;;5052028;28;20450;-59
2022/01/08 03:46:04;;;;;;;25.27;14.73;;;0.90;1.00;;;;;;5051723;28;20860;-58
2022/01/08 03:48:43;;;;;;;21.87;13.10;;;0.90;1.00;;;;;;5051692;28;20450;-58
2022/01/08 03:51:11;;;;;;;24.63;14.63;;;0.90;1.00;;;;;;5051595;28;20597;-58
2022/01/08 03:53:38;;;;;;;29.20;15.03;;;0.90;1.00;;;;;;5052029;28;20497;-57
2022/01/08 03:56:05;;;;;;;27.37;16.07;;;0.90;1.00;;;;;;5051767;28;20487;-59
2022/01/08 03:58:32;;;;;;;28.80;15.33;;;0.90;1.00;;;;;;5051707;28;20482;-59
2022/01/08 04:00:59;;;;;;;25.00;14.97;;;0.90;1.00;;;;;;5051724;28;20512;-60
2022/01/08 04:03:26;;;;;;;25.30;14.53;;;0.90;1.00;;;;;;5051577;28;20466;-60
2022/01/08 04:05:54;;;;;;;29.40;16.20;;;0.90;1.00;;;;;;5051754;28;20455;-60
2022/01/08 04:08:21;;;;;;;33.00;16.27;;;1.00;1.00;;;;;;5051564;28;20447;-60
2022/01/08 04:10:47;;;;;;;25.93;15.30;;;1.00;1.00;;;;;;5052398;28;20473;-57
2022/01/08 04:13:17;;;;;;;33.27;15.93;;;1.00;1.00;;;;;;5052565;28;20454;-59
2022/01/08 04:15:46;;;;;;;27.97;15.27;;;1.00;1.00;;;;;;5052353;28;20557;-57
2022/01/08 04:18:13;;;;;;;30.43;16.80;;;1.10;1.00;;;;;;5052007;28;20446;-60
2022/01/08 04:20:50;;;;;;;26.20;15.47;;;1.10;1.00;;;;;;5051988;28;20475;-57
2022/01/08 04:23:21;;;;;;;27.07;17.13;;;1.10;1.00;;;;;;5051951;28;20451;-56
2022/01/08 04:25:48;;;;;;;31.13;16.63;;;1.10;1.00;;;;;;5051382;28;20443;-59
2022/01/08 04:28:15;;;;;;;32.80;17.37;;;1.10;1.00;;;;;;5051470;28;21128;-56
2022/01/08 04:30:42;;;;;;;29.10;15.97;;;1.10;1.00;;;;;;5051403;28;20519;-59
2022/01/08 04:33:08;;;;;;;30.80;17.70;;;1.10;1.00;;;;;;5052106;28;20505;-57
2022/01/08 04:35:35;;;;;;;32.43;18.27;;;1.00;1.00;;;;;;5051716;28;20531;-59
2022/01/08 04:38:02;;;;;;;27.60;16.27;;;1.00;1.00;;;;;;5051262;28;20941;-54
2022/01/08 04:40:32;;;;;;;31.30;16.33;;;1.00;1.00;;;;;;5051340;28;20547;-54
2022/01/08 04:42:59;;;;;;;30.03;17.97;;;1.00;1.00;;;;;;5051393;28;20454;-60
2022/01/08 04:45:28;;;;;;;34.33;20.00;;;1.00;1.00;;;;;;5054596;28;20973;-60
2022/01/08 04:47:55;;;;;;;33.53;19.23;;;0.90;1.00;;;;;;5054695;28;21025;-58
2022/01/08 04:50:22;;;;;;;35.27;20.70;;;0.90;1.00;;;;;;5055136;28;20474;-56
2022/01/08 04:52:48;;;;;;;37.43;20.47;;;0.80;1.00;;;;;;5055011;28;20446;-60
2022/01/08 04:55:15;;;;;;;37.13;20.13;;;0.80;1.00;;;;;;5054832;28;20458;-60
2022/01/08 04:57:43;;;;;;;37.87;21.00;;;0.80;1.00;;;;;;5054684;28;20453;-60
2022/01/08 05:00:11;;;;;;;36.03;19.43;;;0.80;1.00;;;;;;5054912;28;20476;-59
2022/01/08 05:02:38;;;;;;;36.73;21.10;;;0.80;1.00;;;;;;5055343;28;20454;-60
2022/01/08 05:05:05;;;;;;;37.63;20.70;;;0.80;1.00;;;;;;5055491;28;20507;-60
2022/01/08 05:07:32;;;;;;;37.23;20.33;;;0.80;1.00;;;;;;5054614;28;20454;-59
2022/01/08 05:09:59;;;;;;;44.70;21.90;;;0.70;1.00;;;;;;5054617;28;21006;-59
2022/01/08 05:12:25;;;;;;;38.27;22.10;;;0.70;1.00;;;;;;5054745;28;20457;-59
2022/01/08 05:14:55;;;;;;;37.17;21.03;;;0.70;1.00;;;;;;5054486;28;20520;-58
2022/01/08 05:17:28;;;;;;;36.97;21.93;;;0.70;1.00;;;;;;5054399;28;20494;-59
2022/01/08 05:19:56;;;;;;;37.07;22.87;;;0.60;1.00;;;;;;5054488;28;20470;-58
2022/01/08 05:22:26;;;;;;;44.83;21.77;;;0.60;1.00;;;;;;5054271;28;20987;-58
2022/01/08 05:24:53;;;;;;;44.77;24.10;;;0.60;1.00;;;;;;5054337;28;20462;-58
2022/01/08 05:27:20;;;;;;;42.30;23.00;;;0.60;1.00;;;;;;5054225;28;20451;-57
2022/01/08 05:29:48;;;;;;;38.87;21.10;;;0.60;1.00;;;;;;5054455;28;20890;-60
2022/01/08 05:32:17;;;;;;;51.20;25.23;;;0.60;1.00;;;;;;5054436;28;20454;-60
2022/01/08 05:34:45;;;;;;;42.07;24.47;;;0.60;1.00;;;;;;5054244;28;20515;-57
2022/01/08 05:37:12;;;;;;;46.03;25.37;;;0.50;1.00;;;;;;5053861;28;20482;-59
2022/01/08 05:39:39;;;;;;;52.20;26.53;;;0.50;1.00;;;;;;5053831;28;20468;-60
2022/01/08 05:42:07;;;;;;;48.43;23.70;;;0.50;1.00;;;;;;5054439;28;20460;-60
2022/01/08 05:44:34;;;;;;;44.57;24.20;;;0.50;1.00;;;;;;5053848;28;20970;-59
2022/01/08 05:47:01;;;;;;;47.03;26.63;;;0.50;1.00;;;;;;5053934;28;20438;-60
2022/01/08 05:49:29;;;;;;;42.90;23.27;;;0.50;1.00;;;;;;5053752;28;20488;-60
2022/01/08 05:51:55;;;;;;;43.37;25.50;;;0.50;1.00;;;;;;5053711;28;20453;-59
2022/01/08 05:54:22;;;;;;;48.00;25.03;;;0.50;1.00;;;;;;5054143;28;20486;-60
2022/01/08 05:56:50;;;;;;;50.53;27.93;;;0.40;1.00;;;;;;5053027;28;20548;-60
2022/01/08 05:59:17;;;;;;;50.53;26.87;;;0.40;1.00;;;;;;5054071;28;20568;-59
2022/01/08 06:01:44;;;;;;;48.10;25.43;;;0.40;1.00;;;;;;5053812;28;20446;-60
2022/01/08 06:04:11;;;;;;;51.27;27.43;;;0.50;1.00;;;;;;5053788;28;20458;-60
2022/01/08 06:06:40;;;;;;;57.10;29.47;;;0.40;1.00;;;;;;5053195;28;20445;-57
2022/01/08 06:09:07;;;;;;;52.07;26.97;;;0.50;1.00;;;;;;5053619;28;20515;-60
2022/01/08 06:11:33;;;;;;;52.40;27.53;;;0.40;1.00;;;;;;5053471;28;20462;-59
2022/01/08 06:14:01;;;;;;;54.87;30.17;;;0.40;1.00;;;;;;5053509;28;20458;-60
2022/01/08 06:16:33;;;;;;;53.70;29.30;;;0.40;1.00;;;;;;5053199;28;20494;-60
2022/01/08 06:18:59;;;;;;;49.40;26.77;;;0.40;1.00;;;;;;5053138;28;20884;-58
2022/01/08 06:21:26;;;;;;;53.50;25.40;;;0.30;1.00;;;;;;5053574;28;20449;-58
2022/01/08 06:23:54;;;;;;;53.03;28.20;;;0.30;1.00;;;;;;5053605;28;20455;-59
2022/01/08 06:26:21;;;;;;;53.73;27.83;;;0.30;1.00;;;;;;5053240;28;20451;-59
2022/01/08 06:28:49;;;;;;;47.53;25.57;;;0.30;1.00;;;;;;5053147;28;20468;-55
2022/01/08 06:31:16;;;;;;;52.27;25.80;;;0.30;1.00;;;;;;5053695;28;20454;-59
2022/01/08 06:33:43;;;;;;;50.67;24.53;;;0.30;1.00;;;;;;5053068;28;20498;-58
2022/01/08 06:36:09;;;;;;;48.00;25.07;;;0.30;1.00;;;;;;5052961;28;20532;-57
2022/01/08 06:38:36;;;;;;;44.07;23.47;;;0.30;1.00;;;;;;5052964;28;20476;-55
2022/01/08 06:41:04;;;;;;;43.57;24.60;;;0.40;1.00;;;;;;5053016;28;20833;-60
2022/01/08 06:43:31;;;;;;;44.13;24.50;;;0.40;1.00;;;;;;5053110;28;20448;-59
2022/01/08 06:45:58;;;;;;;40.63;23.00;;;0.40;1.00;;;;;;5052722;28;20459;-59
2022/01/08 06:48:24;;;;;;;40.63;24.23;;;0.30;1.00;;;;;;5053080;28;20553;-58
2022/01/08 06:50:51;;;;;;;43.13;22.73;;;0.30;1.00;;;;;;5052743;28;20470;-60
2022/01/08 06:53:18;;;;;;;43.23;22.53;;;0.30;1.00;;;;;;5053239;28;20453;-59
2022/01/08 06:55:44;;;;;;;40.70;24.23;;;0.30;1.00;;;;;;5052823;28;20445;-60
2022/01/08 06:58:12;;;;;;;43.23;24.83;;;0.40;1.00;;;;;;5052594;28;20457;-60
2022/01/08 07:00:39;;;;;;;39.73;21.17;;;0.40;1.00;;;;;;5053103;28;20999;-60
2022/01/08 07:03:09;;;;;;;52.10;25.17;;;0.50;1.00;;;;;;5052789;28;20502;-60
2022/01/08 07:05:36;;;;;;;42.30;24.57;;;0.50;1.00;;;;;;5052860;28;20445;-59
2022/01/08 07:08:03;;;;;;;44.77;24.20;;;0.50;1.00;;;;;;5051604;28;20452;-58
2022/01/08 07:10:30;;;;;;;47.10;25.00;;;0.50;1.00;;;;;;5052206;28;20993;-60
2022/01/08 07:12:57;;;;;;;47.87;24.57;;;0.60;1.00;;;;;;5052898;28;20873;-58
2022/01/08 07:15:25;;;;;;;56.70;28.93;;;0.60;1.00;;;;;;5052181;28;20462;-59
2022/01/08 07:17:52;;;;;;;57.53;28.00;;;0.60;1.00;;;;;;5051998;28;20485;-57
2022/01/08 07:20:19;;;;;;;51.93;26.83;;;0.60;1.00;;;;;;5051827;28;20523;-59
2022/01/08 07:22:45;;;;;;;58.37;31.63;;;0.70;1.00;;;;;;5052265;28;20533;-59
2022/01/08 07:25:12;;;;;;;57.13;28.93;;;0.70;1.00;;;;;;5052380;28;20499;-58
2022/01/08 07:27:39;;;;;;;54.77;28.40;;;0.70;1.00;;;;;;5052207;28;20447;-59
2022/01/08 07:30:08;;;;;;;59.67;27.50;;;0.80;1.00;;;;;;5052350;28;20482;-60
2022/01/08 07:32:41;;;;;;;48.00;25.93;;;0.80;1.00;;;;;;5052132;28;20802;-57
2022/01/08 07:35:09;;;;;;;47.33;24.87;;;0.80;1.00;;;;;;5052199;28;20541;-60
2022/01/08 07:37:36;;;;;;;53.10;26.47;;;0.80;1.00;;;;;;5052485;28;20493;-59
2022/01/08 07:40:03;;;;;;;51.80;25.43;;;0.80;1.00;;;;;;5052303;28;20479;-59
2022/01/08 07:42:30;;;;;;;46.57;26.47;;;0.80;1.00;;;;;;5052304;28;20532;-59
2022/01/08 07:44:57;;;;;;;52.63;26.13;;;0.90;1.00;;;;;;5052514;28;20451;-60
2022/01/08 07:47:24;;;;;;;49.83;27.03;;;0.90;1.50;;;;;;5052276;28;20447;-60
2022/01/08 07:49:52;;;;;;;44.90;24.73;;;0.90;1.60;;;;;;5052480;28;20464;-60
2022/01/08 07:52:18;;;;;;;53.03;25.73;;;0.90;1.60;;;;;;5052870;28;20479;-59
2022/01/08 07:54:45;;;;;;;50.90;25.73;;;0.90;1.00;;;;;;5052758;28;20528;-60
2022/01/08 07:57:11;;;;;;;51.67;26.20;;;0.90;1.00;;;;;;5052211;28;20510;-59
2022/01/08 07:59:38;;;;;;;47.80;22.50;;;0.90;1.00;;;;;;5052400;28;20892;-59
2022/01/08 08:02:05;;;;;;;43.77;22.83;;;0.90;1.00;;;;;;5051552;28;20457;-57
2022/01/08 08:04:31;;;;;;;48.87;22.80;;;0.90;1.00;;;;;;5051779;28;20459;-60
2022/01/08 08:06:59;;;;;;;51.33;24.10;;;0.90;1.00;;;;;;5051708;28;20516;-58
2022/01/08 08:09:26;;;;;;;46.77;23.53;;;0.90;1.00;;;;;;5051383;28;20521;-61
2022/01/08 08:11:53;;;;;;;57.63;25.57;;;0.90;1.00;;;;;;5051665;28;20488;-61
2022/01/08 08:14:20;;;;;;;55.13;24.60;;;1.00;1.00;;;;;;5051818;28;20519;-59
2022/01/08 08:16:46;;;;;;;50.03;22.83;;;1.00;1.00;;;;;;5051422;28;20882;-61
2022/01/08 08:19:13;;;;;;;45.70;22.10;;;1.00;1.00;;;;;;5052777;28;20531;-61
2022/01/08 08:21:40;;;;;;;49.87;23.43;;;1.00;1.00;;;;;;5055566;28;20498;-61
2022/01/08 08:24:08;;;;;;;58.90;24.33;;;1.00;1.00;;;;;;5055136;28;20505;-61
2022/01/08 08:26:35;;;;;;;51.07;24.67;;;1.10;1.00;;;;;;5055513;28;20836;-60
2022/01/08 08:29:02;;;;;;;46.27;21.63;;;1.10;1.00;;;;;;5055342;28;20527;-61
2022/01/08 08:31:29;;;;;;;52.27;21.93;;;1.10;1.00;;;;;;5055659;28;20450;-61
2022/01/08 08:33:55;;;;;;;48.80;21.63;;;1.10;1.00;;;;;;5055550;28;20450;-58
2022/01/08 08:36:22;;;;;;;47.00;22.37;;;1.10;1.00;;;;;;5054952;28;20451;-61
2022/01/08 08:38:49;;;;;;;50.53;24.50;;;1.10;1.00;;;;;;5055516;28;20501;-61
2022/01/08 08:41:17;;;;;;;41.17;20.77;;;1.10;1.00;;;;;;5055461;28;20447;-60
2022/01/08 08:43:44;;;;;;;44.97;22.50;;;1.20;1.00;;;;;;5055259;28;20856;-61
2022/01/08 08:46:10;;;;;;;48.90;23.93;;;1.20;1.00;;;;;;5054648;28;20454;-61
2022/01/08 08:48:37;;;;;;;53.00;24.87;;;1.20;1.00;;;;;;5054866;28;20472;-61
2022/01/08 08:51:04;;;;;;;42.93;18.57;;;1.20;1.00;;;;;;5055059;28;20987;-60
2022/01/08 08:53:31;;;;;;;54.67;23.73;;;1.30;1.00;;;;;;5054947;28;20517;-62
2022/01/08 08:55:57;;;;;;;54.23;24.37;;;1.30;1.00;;;;;;5055135;28;20502;-61
2022/01/08 08:58:25;;;;;;;56.67;24.73;;;1.30;1.00;;;;;;5054788;28;20495;-60
2022/01/08 09:00:52;;;;;;;58.30;23.83;;;1.30;1.00;;;;;;5055006;28;20989;-58
2022/01/08 09:03:20;;;;;;;47.40;22.67;;;1.40;1.00;;;;;;5054679;28;20463;-60
2022/01/08 09:05:47;;;;;;;47.77;21.53;;;1.40;1.00;;;;;;5055068;28;20458;-60
2022/01/08 09:08:14;;;;;;;44.40;21.70;;;1.50;1.00;;;;;;5054813;28;20995;-60
2022/01/08 09:10:41;;;;;;;46.23;20.47;;;1.50;1.00;;;;;;5055079;28;20472;-56
2022/01/08 09:13:08;;;;;;;44.33;21.10;;;1.50;1.00;;;;;;5055052;28;20496;-61
2022/01/08 09:15:40;;;;;;;45.13;20.27;;;1.50;1.00;;;;;;5055018;28;20460;-62
2022/01/08 09:18:08;;;;;;;42.20;18.77;;;1.50;1.00;;;;;;5054638;28;20533;-61
2022/01/08 09:20:35;;;;;;;50.40;23.10;;;1.50;1.00;;;;;;5055032;28;20474;-60
2022/01/08 09:23:02;;;;;;;48.23;21.83;;;1.60;1.00;;;;;;5054925;28;20456;-60
2022/01/08 09:25:29;;;;;;;47.07;23.30;;;1.70;1.00;;;;;;5055012;28;20455;-62
2022/01/08 09:27:55;;;;;;;40.70;19.27;;;1.70;1.00;;;;;;5054822;28;20456;-60
2022/01/08 09:30:22;;;;;;;40.50;19.13;;;1.70;1.00;;;;;;5053842;28;20471;-62
2022/01/08 09:32:50;;;;;;;38.83;17.77;;;1.80;1.00;;;;;;5054714;28;20456;-61
2022/01/08 09:35:18;;;;;;;53.57;20.20;;;1.70;1.00;;;;;;5055065;28;20523;-60
2022/01/08 09:37:45;;;;;;;37.47;18.40;;;1.70;1.00;;;;;;5054146;28;20551;-61
2022/01/08 09:40:14;;;;;;;31.30;15.77;;;1.70;1.00;;;;;;5054231;28;20986;-61
2022/01/08 09:42:42;;;;;;;33.43;17.40;;;1.70;1.00;;;;;;5054263;28;20449;-60
2022/01/08 09:45:10;;;;;;;42.83;18.13;;;1.80;1.00;;;;;;5054436;28;20456;-59
2022/01/08 09:47:36;;;;;;;35.90;18.90;;;1.80;1.00;;;;;;5054538;28;20444;-60
2022/01/08 09:50:06;;;;;;;38.50;17.93;;;1.80;1.00;;;;;;5054764;28;20467;-61
2022/01/08 09:52:33;;;;;;;38.53;19.30;;;1.90;1.00;;;;;;5054616;28;20531;-60
2022/01/08 09:55:00;;;;;;;37.47;18.30;;;2.00;1.00;;;;;;5054154;28;20451;-60
2022/01/08 09:57:27;;;;;;;40.33;17.70;;;1.90;1.00;;;;;;5053504;28;20594;-61
2022/01/08 09:59:54;;;;;;;37.77;19.13;;;1.90;1.00;;;;;;5053831;28;20475;-63
2022/01/08 10:02:21;;;;;;;33.07;18.07;;;1.90;1.00;;;;;;5053766;28;20452;-61
2022/01/08 10:04:48;;;;;;;37.80;17.87;;;1.90;1.00;;;;;;5054083;28;20485;-60
2022/01/08 10:07:19;;;;;;;45.23;18.57;;;2.00;1.00;;;;;;5053836;28;20861;-60
2022/01/08 10:09:59;;;;;;;35.13;18.50;;;2.00;1.00;;;;;;5054084;28;20491;-59
2022/01/08 10:12:36;;;;;;;32.90;15.17;;;2.00;1.00;;;;;;5054099;28;20451;-60
2022/01/08 10:17:48;;;;;;;37.23;18.83;;;2.10;1.00;;;;;;5053105;28;20475;-61
2022/01/08 10:20:28;;;;;;;33.63;17.20;;;2.10;1.00;;;;;;5053415;28;20514;-60
2022/01/08 10:23:15;;;;;;;35.53;18.43;;;2.10;1.00;;;;;;5053199;28;20451;-60
2022/01/08 10:25:43;;;;;;;36.80;16.33;;;2.20;1.00;;;;;;5050215;28;20471;-61
2022/01/08 10:28:10;;;;;;;32.37;14.57;;;2.30;1.00;;;;;;5053233;28;20474;-61
2022/01/08 10:30:37;;;;;;;35.77;17.33;;;2.40;1.00;;;;;;5053122;28;20464;-61
2022/01/08 10:33:04;;;;;;;36.47;15.50;;;2.40;1.00;;;;;;5053039;28;20444;-60
2022/01/08 10:35:51;;;;;;;33.73;14.70;;;2.40;1.00;;;;;;5053237;28;20459;-61
2022/01/08 10:38:19;;;;;;;27.57;13.97;;;2.50;1.00;;;;;;5052733;28;20479;-61
2022/01/08 10:40:46;;;;;;;29.67;13.63;;;2.50;1.00;;;;;;5052915;28;20475;-61
2022/01/08 10:43:24;;;;;;;28.63;14.20;;;2.50;1.00;;;;;;5052570;28;20883;-61
2022/01/08 10:45:51;;;;;;;21.50;11.53;;;2.60;1.00;;;;;;5052773;28;20487;-62
2022/01/08 10:48:30;;;;;;;29.70;12.57;;;2.70;1.00;;;;;;5052968;28;20440;-61
2022/01/08 10:51:10;;;;;;;28.53;13.00;;;2.60;1.00;;;;;;5052819;28;20440;-61
2022/01/08 10:54:12;;;;;;;27.43;12.80;;;2.60;1.00;;;;;;5052918;28;20452;-61
2022/01/08 10:56:42;;;;;;;21.27;12.40;;;2.70;1.00;;;;;;4971568;28;20946;-61
2022/01/08 10:59:18;;;;;;;27.23;11.77;;;2.80;1.00;;;;;;5037376;28;20492;-62
2022/01/08 11:01:48;;;;;;;27.63;12.77;;;2.90;1.00;;;;;;5052650;28;20451;-62
2022/01/08 11:04:17;;;;;;;24.00;11.13;;;2.80;1.00;;;;;;5052547;28;20454;-61
2022/01/08 11:06:56;;;;;;;20.67;10.67;;;2.80;1.00;;;;;;5052381;28;20453;-61
2022/01/08 11:09:26;;;;;;;20.23;10.43;;;2.80;1.00;;;;;;5052934;28;20957;-62
2022/01/08 11:11:54;;;;;;;11.43;6.27;;;2.70;1.00;;;;;;5053986;28;20443;-61
2022/01/08 11:14:46;;;;;;;20.17;10.50;;;2.70;1.00;;;;;;5053025;28;20838;-61
2022/01/08 11:17:15;;;;;;;13.40;8.03;;;2.80;1.00;;;;;;5052039;28;20926;-61
2022/01/08 11:19:45;;;;;;;19.83;9.50;;;2.80;1.00;;;;;;5052053;28;20989;-61
2022/01/08 11:22:14;;;;;;;24.07;10.50;;;2.80;1.00;;;;;;5054757;28;20452;-61
2022/01/08 11:24:49;;;;;;;16.00;9.17;;;2.80;1.00;;;;;;5054881;28;20958;-61
2022/01/08 11:27:21;;;;;;;17.77;9.70;;;2.80;99.90;;;;;;5052074;28;20448;-61
2022/01/08 11:29:55;;;;;;;13.37;8.47;;;2.80;99.90;;;;;;5052315;28;20464;-61
2022/01/08 11:32:24;;;;;;;16.10;8.67;;;2.90;99.90;;;;;;5052730;28;20466;-62
2022/01/08 11:34:51;;;;;;;16.03;8.03;;;2.90;99.90;;;;;;5052963;28;20498;-61
2022/01/08 11:37:18;;;;;;;16.03;7.87;;;2.90;99.90;;;;;;5052309;28;20451;-61
2022/01/08 11:39:47;;;;;;;19.47;8.10;;;2.90;99.90;;;;;;5051903;28;20514;-61
2022/01/08 11:42:14;;;;;;;12.33;6.47;;;3.00;99.90;;;;;;5052111;28;20456;-61
2022/01/08 11:44:41;;;;;;;13.03;7.40;;;3.00;99.90;;;;;;5052087;28;20555;-61
2022/01/08 11:47:09;;;;;;;14.27;6.53;;;3.00;99.90;;;;;;5051734;28;20243;-61
2022/01/08 11:49:36;;;;;;;11.13;5.57;;;3.10;99.90;;;;;;5051899;28;20538;-60
2022/01/08 11:52:16;;;;;;;10.77;5.60;;;3.10;99.90;;;;;;5051622;28;21005;-62
2022/01/08 11:54:46;;;;;;;12.83;5.63;;;3.20;99.90;;;;;;5051093;28;20459;-62
2022/01/08 11:57:20;;;;;;;11.03;5.53;;;3.30;99.90;;;;;;5051590;28;20466;-62
2022/01/08 11:59:48;;;;;;;11.67;4.90;;;3.30;99.90;;;;;;5051848;28;20479;-62
2022/01/08 12:02:16;;;;;;;10.60;5.20;;;3.30;99.90;;;;;;5051796;28;20455;-62
2022/01/08 12:04:47;;;;;;;11.40;4.93;;;3.40;99.90;;;;;;5051634;28;20448;-62
2022/01/08 12:07:35;;;;;;;9.77;4.80;;;3.50;99.90;;;;;;5051396;28;20816;-62
2022/01/08 12:10:18;;;;;;;10.87;4.43;;;3.60;99.90;;;;;;5051684;28;20229;-63
2022/01/08 12:12:55;;;;;;;9.00;4.00;;;3.60;1.00;;;;;;5051928;28;20311;-63
2022/01/08 12:15:50;;;;;;;9.00;4.50;;;3.50;1.00;;;;;;5051740;28;20514;-62
2022/01/08 12:18:19;;;;;;;9.63;4.07;;;3.50;1.00;;;;;;5051752;28;20565;-62
2022/01/08 12:20:49;;;;;;;5.70;3.17;;;3.40;1.00;;;;;;5051513;28;20562;-62
2022/01/08 12:23:33;;;;;;;9.37;4.33;;;3.50;1.00;;;;;;5051433;28;20455;-62
2022/01/08 12:26:06;;;;;;;7.87;3.33;;;3.50;1.00;;;;;;5051412;28;20451;-62
2022/01/08 12:28:56;;;;;;;7.17;3.67;;;3.50;1.00;;;;;;5051363;28;20444;-63
2022/01/08 12:31:38;;;;;;;6.70;3.80;;;3.60;1.00;;;;;;5051953;28;20552;-62
2022/01/08 12:34:48;;;;;;;5.27;3.23;;;3.60;1.00;;;;;;5051309;28;20460;-63
2022/01/08 12:37:15;;;;;;;5.90;3.37;;;3.60;1.00;;;;;;5051293;28;20448;-62
2022/01/08 12:39:54;;;;;;;6.63;3.10;;;3.60;1.00;;;;;;5050984;28;20236;-63
2022/01/08 12:42:41;;;;;;;9.33;4.00;;;3.70;1.00;;;;;;5049395;28;20826;-62
2022/01/08 12:45:15;;;;;;;7.23;3.33;;;3.70;1.00;;;;;;5051290;28;20449;-62
2022/01/08 12:47:48;;;;;;;8.70;2.60;;;3.70;99.90;;;;;;5051587;28;20239;-63
2022/01/08 12:50:33;;;;;;;7.27;3.13;;;3.70;99.90;;;;;;5051199;28;20833;-62
2022/01/08 12:53:15;;;;;;;5.37;3.30;;;3.60;99.90;;;;;;5050903;28;20205;-62
2022/01/08 12:55:44;;;;;;;8.90;3.47;;;3.60;99.90;;;;;;5050938;28;20220;-63
2022/01/08 12:58:16;;;;;;;6.50;2.80;;;3.60;99.90;;;;;;5050589;28;20492;-63
2022/01/08 13:00:57;;;;;;;5.70;3.00;;;3.70;99.90;;;;;;5050841;28;20230;-63
2022/01/08 13:03:24;;;;;;;8.67;3.17;;;3.70;27.90;;;;;;5050438;28;20236;-66
2022/01/08 13:05:51;;;;;;;6.63;3.00;;;3.70;94.60;;;;;;5053610;28;20206;-64
2022/01/08 13:08:23;;;;;;;9.47;2.90;;;3.70;90.60;;;;;;5056431;28;20264;-64
2022/01/08 13:10:56;;;;;;;5.57;2.83;;;3.80;1.00;;;;;;5055523;28;20237;-64
2022/01/08 13:13:25;;;;;;;7.17;2.60;;;3.80;82.00;;;;;;5054325;28;20794;-64
2022/01/08 13:15:52;;;;;;;6.50;3.03;;;3.70;1.00;;;;;;5054441;28;20448;-63